Time;durP1;ratioP1;P1;durP2;ratioP2;P2;SDS_P1;SDS_P2;PMS_P1;PMS_P2;Temp;Humidity;BMP_temperature;BMP_pressure;BME280_temperature;BME280_humidity;BME280_pressure;Samples;Min_cycle;Max_cycle;Signal;HPM_P1;HPM_P2
2023/08/24 00:01:03;;;;;;;;;;;26.30;58.60;;;;;;1579526;74;1035;-53
2023/08/24 00:03:05;;;;;;;;;;;26.30;58.60;;;;;;1576587;74;630;-56
2023/08/24 00:05:07;;;;;;;;;;;26.30;58.50;;;;;;1582563;74;728;-54
2023/08/24 00:07:09;;;;;;;;;;;26.30;58.50;;;;;;1581428;74;724;-53
2023/08/24 00:09:11;;;;;;;;;;;26.30;58.50;;;;;;1566977;74;1219;-56
2023/08/24 00:11:14;;;;;;;;;;;26.30;58.50;;;;;;1580801;74;1414;-55
2023/08/24 00:13:16;;;;;;;;;;;26.30;58.50;;;;;;1571559;74;779;-54
2023/08/24 00:15:18;;;;;;;;;;;26.30;58.50;;;;;;1575791;74;1934;-54
2023/08/24 00:17:20;;;;;;;;;;;26.30;58.40;;;;;;1578158;74;689;-56
2023/08/24 00:19:22;;;;;;;;;;;26.30;58.50;;;;;;1587386;74;1133;-54
2023/08/24 00:21:24;;;;;;;;;;;26.30;58.40;;;;;;1569275;74;643;-56
2023/08/24 00:23:26;;;;;;;;;;;26.30;58.40;;;;;;1579392;74;742;-56
2023/08/24 00:25:27;;;;;;;;;;;26.20;58.40;;;;;;1585156;74;1607;-54
2023/08/24 00:27:29;;;;;;;;;;;26.30;58.40;;;;;;1576461;74;722;-56
2023/08/24 00:29:31;;;;;;;;;;;26.20;58.50;;;;;;1571630;74;1132;-57
2023/08/24 00:31:33;;;;;;;;;;;26.30;58.40;;;;;;1572058;74;603;-56
2023/08/24 00:33:35;;;;;;;;;;;26.20;58.40;;;;;;1573244;74;1931;-54
2023/08/24 00:35:37;;;;;;;;;;;26.20;58.40;;;;;;1566491;74;712;-57
2023/08/24 00:37:39;;;;;;;;;;;26.30;58.30;;;;;;1560572;74;1094;-55
2023/08/24 00:39:41;;;;;;;;;;;26.20;58.40;;;;;;1551995;75;1348;-57
2023/08/24 00:41:43;;;;;;;;;;;26.20;58.40;;;;;;1555403;75;804;-55
2023/08/24 00:43:45;;;;;;;;;;;26.20;58.40;;;;;;1545474;75;711;-57
2023/08/24 00:45:47;;;;;;;;;;;26.30;58.40;;;;;;1548672;75;776;-57
2023/08/24 00:47:49;;;;;;;;;;;26.30;58.40;;;;;;1564857;75;718;-56
2023/08/24 00:49:51;;;;;;;;;;;26.20;58.40;;;;;;1554863;75;1149;-56
2023/08/24 00:51:53;;;;;;;;;;;26.30;58.40;;;;;;1549510;75;741;-56
2023/08/24 00:53:57;;;;;;;;;;;26.20;58.40;;;;;;1538642;75;1939;-55
2023/08/24 00:55:59;;;;;;;;;;;26.30;58.30;;;;;;1542410;75;1459;-55
2023/08/24 00:58:01;;;;;;;;;;;26.30;58.20;;;;;;1543521;75;748;-54
2023/08/24 01:00:10;;;;;;;;;;;26.20;58.40;;;;;;1550179;75;1133;-56
2023/08/24 01:02:08;;;;;;;;;;;26.30;58.20;;;;;;1551499;75;1609;-56
2023/08/24 01:04:10;;;;;;;;;;;26.20;58.20;;;;;;1545291;75;704;-53
2023/08/24 01:06:12;;;;;;;;;;;26.20;58.20;;;;;;1548990;75;703;-57
2023/08/24 01:08:14;;;;;;;;;;;26.20;58.30;;;;;;1575614;75;1526;-57
2023/08/24 01:10:16;;;;;;;;;;;26.20;58.20;;;;;;1558798;75;1179;-56
2023/08/24 01:12:20;;;;;;;;;;;26.20;58.10;;;;;;1548672;75;801;-54
2023/08/24 01:14:26;;;;;;;;;;;26.20;58.20;;;;;;1548270;75;1916;-54
2023/08/24 01:16:29;;;;;;;;;;;26.20;58.10;;;;;;1518087;75;1631;-54
2023/08/24 01:18:31;;;;;;;;;;;26.20;58.10;;;;;;1568235;75;709;-54
2023/08/24 01:20:33;;;;;;;;;;;26.30;58.10;;;;;;1554800;75;1149;-53
2023/08/24 01:22:53;;;;;;;;;;;26.30;58.10;;;;;;1546798;75;1572;-56
2023/08/24 01:24:57;;;;;;;;;;;26.20;58.10;;;;;;1550985;75;714;-56
2023/08/24 01:26:59;;;;;;;;;;;26.30;58.10;;;;;;1552169;75;729;-56
2023/08/24 01:29:01;;;;;;;;;;;26.20;58.10;;;;;;1543719;75;1117;-54
2023/08/24 01:31:04;;;;;;;;;;;26.20;58.00;;;;;;1542287;75;740;-53
2023/08/24 01:33:11;;;;;;;;;;;26.20;58.10;;;;;;1546941;75;735;-55
2023/08/24 01:35:10;;;;;;;;;;;26.10;58.10;;;;;;1541427;75;1932;-54
2023/08/24 01:37:11;;;;;;;;;;;26.20;58.00;;;;;;1553657;75;810;-55
2023/08/24 01:39:27;;;;;;;;;;;26.20;58.10;;;;;;1545182;75;1220;-54
2023/08/24 01:41:31;;;;;;;;;;;26.10;58.20;;;;;;1521804;75;1068;-54
2023/08/24 01:43:35;;;;;;;;;;;26.10;58.20;;;;;;1559521;75;761;-54
2023/08/24 01:45:36;;;;;;;;;;;26.20;58.20;;;;;;1549592;75;1698;-55
2023/08/24 01:47:38;;;;;;;;;;;26.20;58.20;;;;;;1552145;75;780;-57
2023/08/24 01:49:41;;;;;;;;;;;26.20;58.10;;;;;;1549587;75;1580;-54
2023/08/24 01:51:43;;;;;;;;;;;26.10;57.90;;;;;;1562170;75;670;-54
2023/08/24 01:53:45;;;;;;;;;;;26.20;58.10;;;;;;1548093;75;780;-54
2023/08/24 01:55:46;;;;;;;;;;;26.10;58.10;;;;;;1538768;75;1937;-56
2023/08/24 01:57:48;;;;;;;;;;;26.10;58.10;;;;;;1559217;75;1055;-55
2023/08/24 01:59:50;;;;;;;;;;;26.20;57.90;;;;;;1543230;75;1149;-57
2023/08/24 02:01:52;;;;;;;;;;;26.10;57.90;;;;;;1565352;75;756;-57
2023/08/24 02:03:55;;;;;;;;;;;26.10;58.10;;;;;;1553301;75;1495;-56
2023/08/24 02:05:57;;;;;;;;;;;26.10;58.10;;;;;;1548705;75;790;-56
2023/08/24 02:07:59;;;;;;;;;;;26.20;58.10;;;;;;1546799;75;747;-56
2023/08/24 02:10:01;;;;;;;;;;;26.20;58.00;;;;;;1548642;75;1158;-56
2023/08/24 02:12:03;;;;;;;;;;;26.20;58.00;;;;;;1549041;75;732;-53
2023/08/24 02:14:05;;;;;;;;;;;26.20;58.00;;;;;;1539911;75;763;-55
2023/08/24 02:16:08;;;;;;;;;;;26.10;58.10;;;;;;1549864;75;1943;-55
2023/08/24 02:18:10;;;;;;;;;;;26.10;58.10;;;;;;1531788;75;1586;-56
2023/08/24 02:20:12;;;;;;;;;;;26.10;58.00;;;;;;1550844;75;1157;-55
2023/08/24 02:22:14;;;;;;;;;;;26.10;58.00;;;;;;1545124;75;778;-54
2023/08/24 02:24:16;;;;;;;;;;;26.10;58.00;;;;;;1548133;75;875;-56
2023/08/24 02:26:18;;;;;;;;;;;26.10;57.80;;;;;;1547559;75;814;-54
2023/08/24 02:28:20;;;;;;;;;;;26.10;58.00;;;;;;1548756;75;770;-53
2023/08/24 02:30:22;;;;;;;;;;;26.10;58.00;;;;;;1555078;75;1130;-56
2023/08/24 02:32:23;;;;;;;;;;;26.10;58.00;;;;;;1548542;75;1448;-56
2023/08/24 02:34:26;;;;;;;;;;;26.10;58.00;;;;;;1553613;75;1938;-56
2023/08/24 02:36:28;;;;;;;;;;;26.10;58.00;;;;;;1540391;75;796;-56
2023/08/24 02:38:30;;;;;;;;;;;26.10;58.10;;;;;;1537129;75;1043;-56
2023/08/24 02:40:32;;;;;;;;;;;26.10;57.90;;;;;;1540186;75;1130;-55
2023/08/24 02:42:34;;;;;;;;;;;26.10;57.90;;;;;;1527101;75;723;-56
2023/08/24 02:44:36;;;;;;;;;;;26.10;57.80;;;;;;1548422;75;728;-55
2023/08/24 02:46:38;;;;;;;;;;;26.10;57.70;;;;;;1551732;75;1499;-54
2023/08/24 02:48:40;;;;;;;;;;;26.10;57.80;;;;;;1556641;75;772;-54
2023/08/24 02:50:43;;;;;;;;;;;26.10;57.70;;;;;;1551677;75;1094;-54
2023/08/24 02:52:45;;;;;;;;;;;26.10;57.80;;;;;;1548109;75;2011;-56
2023/08/24 02:54:47;;;;;;;;;;;26.10;57.80;;;;;;1550934;75;1937;-54
2023/08/24 02:56:49;;;;;;;;;;;26.10;57.90;;;;;;1540105;75;703;-54
2023/08/24 02:58:51;;;;;;;;;;;26.10;57.80;;;;;;1546947;75;695;-56
2023/08/24 03:00:53;;;;;;;;;;;26.10;57.60;;;;;;1540467;75;1471;-57
2023/08/24 03:02:55;;;;;;;;;;;26.10;57.60;;;;;;1547369;75;1040;-57
2023/08/24 03:04:56;;;;;;;;;;;26.10;57.60;;;;;;1556692;75;726;-54
2023/08/24 03:06:58;;;;;;;;;;;26.10;57.60;;;;;;1563500;75;743;-56
2023/08/24 03:09:03;;;;;;;;;;;26.00;57.70;;;;;;1561313;75;1109;-57
2023/08/24 03:11:04;;;;;;;;;;;26.10;57.70;;;;;;1556904;75;1644;-56
2023/08/24 03:13:06;;;;;;;;;;;26.00;57.60;;;;;;1548336;75;771;-56
2023/08/24 03:15:08;;;;;;;;;;;26.10;57.70;;;;;;1547269;75;1929;-55
2023/08/24 03:17:10;;;;;;;;;;;26.00;57.70;;;;;;1554827;75;760;-54
2023/08/24 03:19:14;;;;;;;;;;;26.00;57.60;;;;;;1541056;75;1181;-54
2023/08/24 03:21:16;;;;;;;;;;;26.00;57.60;;;;;;1548741;75;708;-55
2023/08/24 03:23:18;;;;;;;;;;;26.10;57.50;;;;;;1551212;75;661;-56
2023/08/24 03:25:19;;;;;;;;;;;26.00;57.60;;;;;;1544461;75;678;-55
2023/08/24 03:27:21;;;;;;;;;;;26.00;57.60;;;;;;1549531;75;790;-57
2023/08/24 03:29:23;;;;;;;;;;;26.00;57.70;;;;;;1544838;75;1667;-55
2023/08/24 03:31:26;;;;;;;;;;;26.00;57.60;;;;;;1548163;75;746;-56
2023/08/24 03:33:28;;;;;;;;;;;26.00;57.60;;;;;;1549039;75;644;-56
2023/08/24 03:35:30;;;;;;;;;;;26.10;57.60;;;;;;1547737;75;1913;-55
2023/08/24 03:37:32;;;;;;;;;;;26.00;57.60;;;;;;1551814;75;718;-55
2023/08/24 03:39:33;;;;;;;;;;;26.00;57.50;;;;;;1557720;75;1189;-56
2023/08/24 03:41:35;;;;;;;;;;;26.00;57.60;;;;;;1568174;75;1540;-54
2023/08/24 03:43:37;;;;;;;;;;;26.00;57.60;;;;;;1562282;75;776;-57
2023/08/24 03:45:39;;;;;;;;;;;26.00;57.60;;;;;;1564038;75;811;-57
2023/08/24 03:47:41;;;;;;;;;;;26.00;57.60;;;;;;1574540;75;696;-55
2023/08/24 03:49:44;;;;;;;;;;;26.00;57.60;;;;;;1560656;75;1121;-56
2023/08/24 03:51:46;;;;;;;;;;;26.00;57.60;;;;;;1557150;75;1053;-55
2023/08/24 03:53:48;;;;;;;;;;;26.10;57.50;;;;;;1564681;75;758;-56
2023/08/24 03:55:51;;;;;;;;;;;26.00;57.40;;;;;;1553476;75;1946;-55
2023/08/24 03:57:54;;;;;;;;;;;26.00;57.30;;;;;;1559035;75;797;-54
2023/08/24 03:59:56;;;;;;;;;;;26.10;57.60;;;;;;1556374;75;1087;-56
2023/08/24 04:02:01;;;;;;;;;;;26.00;57.50;;;;;;1574172;75;735;-56
2023/08/24 04:04:01;;;;;;;;;;;26.00;57.60;;;;;;1565011;75;1527;-54
2023/08/24 04:06:03;;;;;;;;;;;26.00;57.60;;;;;;1557272;75;704;-53
2023/08/24 04:08:05;;;;;;;;;;;26.00;57.60;;;;;;1559589;75;745;-56
2023/08/24 04:10:08;;;;;;;;;;;26.00;57.40;;;;;;1563551;75;1519;-56
2023/08/24 04:12:09;;;;;;;;;;;26.00;57.40;;;;;;1552845;75;712;-54
2023/08/24 04:14:11;;;;;;;;;;;26.00;57.30;;;;;;1557118;75;841;-57
2023/08/24 04:16:13;;;;;;;;;;;26.00;57.30;;;;;;1556516;75;1943;-56
2023/08/24 04:18:15;;;;;;;;;;;26.00;57.40;;;;;;1552452;75;735;-57
2023/08/24 04:20:17;;;;;;;;;;;26.00;57.30;;;;;;1568258;75;1153;-55
2023/08/24 04:22:19;;;;;;;;;;;26.00;57.20;;;;;;1558985;75;726;-56
2023/08/24 04:24:21;;;;;;;;;;;26.00;57.30;;;;;;1552126;75;1568;-55
2023/08/24 04:26:23;;;;;;;;;;;25.90;56.80;;;;;;1555068;75;722;-55
2023/08/24 04:28:25;;;;;;;;;;;26.00;57.50;;;;;;1554759;75;727;-55
2023/08/24 04:30:27;;;;;;;;;;;26.00;57.60;;;;;;1554934;75;1106;-54
2023/08/24 04:32:29;;;;;;;;;;;26.00;57.60;;;;;;1552850;75;792;-56
2023/08/24 04:34:30;;;;;;;;;;;26.00;57.50;;;;;;1569167;75;729;-57
2023/08/24 04:36:33;;;;;;;;;;;26.00;57.60;;;;;;1540258;75;1946;-56
2023/08/24 04:38:34;;;;;;;;;;;26.00;57.50;;;;;;1560564;75;1475;-55
2023/08/24 04:40:55;;;;;;;;;;;26.00;57.50;;;;;;1569650;75;1124;-56
2023/08/24 04:42:54;;;;;;;;;;;26.00;57.50;;;;;;1562950;75;1763;-56
2023/08/24 04:44:56;;;;;;;;;;;25.90;57.00;;;;;;1571535;75;784;-56
2023/08/24 04:46:58;;;;;;;;;;;26.00;57.30;;;;;;1542761;75;750;-56
2023/08/24 04:48:59;;;;;;;;;;;25.90;56.80;;;;;;1554669;75;1149;-54
2023/08/24 04:51:01;;;;;;;;;;;26.00;57.40;;;;;;1552193;75;713;-57
2023/08/24 04:53:03;;;;;;;;;;;26.00;57.40;;;;;;1545049;75;1559;-54
2023/08/24 04:55:06;;;;;;;;;;;25.90;56.90;;;;;;1529459;75;704;-55
2023/08/24 04:57:08;;;;;;;;;;;25.90;56.90;;;;;;1544845;75;1948;-56
2023/08/24 04:59:10;;;;;;;;;;;26.00;57.50;;;;;;1563785;75;1152;-55
2023/08/24 05:01:12;;;;;;;;;;;26.00;57.60;;;;;;1543923;75;701;-56
2023/08/24 05:03:14;;;;;;;;;;;26.00;57.60;;;;;;1549626;75;725;-54
2023/08/24 05:05:16;;;;;;;;;;;26.00;57.60;;;;;;1548942;75;646;-54
2023/08/24 05:07:18;;;;;;;;;;;26.00;57.50;;;;;;1555173;75;1521;-54
2023/08/24 05:09:20;;;;;;;;;;;26.00;57.60;;;;;;1562327;75;1150;-54
2023/08/24 05:11:26;;;;;;;;;;;25.90;57.00;;;;;;1548395;75;1090;-56
2023/08/24 05:13:28;;;;;;;;;;;25.90;57.00;;;;;;1551795;75;613;-56
2023/08/24 05:15:30;;;;;;;;;;;25.90;57.00;;;;;;1547474;75;1923;-54
2023/08/24 05:17:32;;;;;;;;;;;25.90;57.00;;;;;;1553313;75;743;-54
2023/08/24 05:19:34;;;;;;;;;;;25.90;57.00;;;;;;1563138;75;1158;-56
2023/08/24 05:21:35;;;;;;;;;;;26.00;57.60;;;;;;1553881;75;1474;-54
2023/08/24 05:23:37;;;;;;;;;;;25.90;57.10;;;;;;1555017;75;685;-55
2023/08/24 05:25:39;;;;;;;;;;;26.00;57.70;;;;;;1560839;75;723;-54
2023/08/24 05:27:41;;;;;;;;;;;25.90;57.10;;;;;;1563141;75;829;-56
2023/08/24 05:29:43;;;;;;;;;;;26.00;57.60;;;;;;1551216;75;1178;-56
2023/08/24 05:31:45;;;;;;;;;;;26.00;57.60;;;;;;1547765;75;757;-55
2023/08/24 05:33:47;;;;;;;;;;;26.00;57.60;;;;;;1567397;75;717;-56
2023/08/24 05:35:49;;;;;;;;;;;25.90;57.10;;;;;;1553765;75;1929;-56
2023/08/24 05:37:51;;;;;;;;;;;26.00;57.60;;;;;;1541105;75;719;-57
2023/08/24 05:39:53;;;;;;;;;;;25.90;57.20;;;;;;1551890;75;1151;-57
2023/08/24 05:41:55;;;;;;;;;;;25.90;57.10;;;;;;1537374;76;759;-56
2023/08/24 05:43:57;;;;;;;;;;;25.90;57.10;;;;;;1542871;75;728;-56
2023/08/24 05:45:59;;;;;;;;;;;26.00;57.70;;;;;;1536535;75;821;-55
2023/08/24 05:48:01;;;;;;;;;;;26.00;57.80;;;;;;1562628;75;768;-57
2023/08/24 05:50:02;;;;;;;;;;;26.00;57.80;;;;;;1547067;75;1362;-57
2023/08/24 05:52:04;;;;;;;;;;;26.00;57.80;;;;;;1552974;75;797;-57
2023/08/24 05:54:07;;;;;;;;;;;25.90;57.30;;;;;;1564018;75;766;-56
2023/08/24 05:56:09;;;;;;;;;;;25.90;57.30;;;;;;1546698;75;1936;-56
2023/08/24 05:58:10;;;;;;;;;;;26.00;57.90;;;;;;1546816;75;742;-55
2023/08/24 06:00:13;;;;;;;;;;;26.00;57.90;;;;;;1557453;75;1141;-56
2023/08/24 06:02:15;;;;;;;;;;;26.00;58.00;;;;;;1555527;75;1516;-56
2023/08/24 06:04:16;;;;;;;;;;;26.00;58.00;;;;;;1535785;75;614;-56
2023/08/24 06:06:18;;;;;;;;;;;25.90;57.60;;;;;;1550893;75;682;-55
2023/08/24 06:08:20;;;;;;;;;;;26.00;58.10;;;;;;1559422;75;739;-57
2023/08/24 06:10:22;;;;;;;;;;;25.90;57.50;;;;;;1559273;75;1134;-56
2023/08/24 06:12:24;;;;;;;;;;;25.90;57.60;;;;;;1552508;75;830;-56
2023/08/24 06:14:26;;;;;;;;;;;26.00;58.10;;;;;;1562089;75;683;-56
2023/08/24 06:16:31;;;;;;;;;;;26.00;58.20;;;;;;1558108;75;1932;-56
2023/08/24 06:18:32;;;;;;;;;;;26.00;58.30;;;;;;1558783;75;721;-56
2023/08/24 06:20:34;;;;;;;;;;;25.90;57.80;;;;;;1552638;75;1169;-56
2023/08/24 06:22:36;;;;;;;;;;;26.10;58.40;;;;;;1555343;75;654;-55
2023/08/24 06:24:38;;;;;;;;;;;26.00;58.40;;;;;;1566748;75;696;-55
2023/08/24 06:26:40;;;;;;;;;;;26.00;58.50;;;;;;1547205;75;759;-54
2023/08/24 06:28:42;;;;;;;;;;;26.00;58.60;;;;;;1544663;75;744;-54
2023/08/24 06:30:45;;;;;;;;;;;26.00;58.80;;;;;;1551659;75;1552;-56
2023/08/24 06:32:47;;;;;;;;;;;26.00;58.90;;;;;;1544065;75;730;-57
2023/08/24 06:34:49;;;;;;;;;;;26.00;59.00;;;;;;1532512;75;722;-56
2023/08/24 06:36:51;;;;;;;;;;;26.00;59.10;;;;;;1564647;75;1941;-56
2023/08/24 06:38:53;;;;;;;;;;;26.00;59.10;;;;;;1545607;75;789;-55
2023/08/24 06:40:55;;;;;;;;;;;26.10;59.10;;;;;;1558389;74;1207;-55
2023/08/24 06:42:57;;;;;;;;;;;26.00;59.10;;;;;;1546629;74;742;-56
2023/08/24 06:44:59;;;;;;;;;;;26.00;59.10;;;;;;1563690;74;1538;-55
2023/08/24 06:47:01;;;;;;;;;;;26.00;59.30;;;;;;1568456;74;756;-56
2023/08/24 06:49:03;;;;;;;;;;;26.10;59.40;;;;;;1567028;74;1206;-56
2023/08/24 06:51:04;;;;;;;;;;;26.10;59.40;;;;;;1578802;74;699;-57
2023/08/24 06:53:06;;;;;;;;;;;26.10;59.60;;;;;;1558662;74;663;-56
2023/08/24 06:55:11;;;;;;;;;;;26.00;59.40;;;;;;1547899;74;658;-55
2023/08/24 06:57:13;;;;;;;;;;;26.00;59.60;;;;;;1574908;74;1919;-56
2023/08/24 06:59:15;;;;;;;;;;;26.00;59.20;;;;;;1568378;74;1520;-56
2023/08/24 07:01:17;;;;;;;;;;;26.00;59.30;;;;;;1568991;74;865;-56
2023/08/24 07:03:19;;;;;;;;;;;26.10;59.30;;;;;;1554911;74;751;-54
2023/08/24 07:05:21;;;;;;;;;;;26.10;59.20;;;;;;1570569;74;742;-56
2023/08/24 07:07:23;;;;;;;;;;;26.00;59.10;;;;;;1566429;74;670;-56
2023/08/24 07:09:25;;;;;;;;;;;26.00;59.00;;;;;;1570264;74;1106;-52
2023/08/24 07:11:27;;;;;;;;;;;26.00;59.00;;;;;;1570497;74;723;-57
2023/08/24 07:13:29;;;;;;;;;;;26.10;59.00;;;;;;1570296;74;1533;-57
2023/08/24 07:15:33;;;;;;;;;;;26.10;59.00;;;;;;1570935;74;724;-57
2023/08/24 07:17:34;;;;;;;;;;;26.10;59.10;;;;;;1567786;74;1927;-57
2023/08/24 07:19:37;;;;;;;;;;;26.10;59.10;;;;;;1567015;74;1093;-54
2023/08/24 07:21:38;;;;;;;;;;;26.00;58.80;;;;;;1560970;74;683;-56
2023/08/24 07:23:40;;;;;;;;;;;26.10;58.80;;;;;;1566372;74;731;-53
2023/08/24 07:25:42;;;;;;;;;;;26.10;58.80;;;;;;1549052;74;775;-56
2023/08/24 07:27:44;;;;;;;;;;;26.10;58.90;;;;;;1565365;74;1552;-57
2023/08/24 07:29:46;;;;;;;;;;;26.10;58.90;;;;;;1568382;74;1138;-56
2023/08/24 07:31:48;;;;;;;;;;;26.10;58.80;;;;;;1565838;74;737;-57
2023/08/24 07:33:50;;;;;;;;;;;26.10;58.60;;;;;;1561944;74;735;-57
2023/08/24 07:35:52;;;;;;;;;;;26.10;58.80;;;;;;1571894;74;700;-56
2023/08/24 07:37:53;;;;;;;;;;;26.10;58.90;;;;;;1555641;74;1939;-53
2023/08/24 07:39:55;;;;;;;;;;;26.10;58.90;;;;;;1572656;74;1187;-54
2023/08/24 07:41:57;;;;;;;;;;;26.10;58.70;;;;;;1554704;74;1592;-56
2023/08/24 07:43:59;;;;;;;;;;;26.10;58.70;;;;;;1544507;75;799;-56
2023/08/24 07:46:01;;;;;;;;;;;26.10;58.60;;;;;;1543062;75;745;-56
2023/08/24 07:48:03;;;;;;;;;;;26.10;58.60;;;;;;1545141;75;817;-56
2023/08/24 07:50:07;;;;;;;;;;;26.10;58.60;;;;;;1550959;75;1193;-56
2023/08/24 07:52:08;;;;;;;;;;;26.10;58.80;;;;;;1538638;75;761;-53
2023/08/24 07:54:10;;;;;;;;;;;26.10;58.90;;;;;;1540468;75;699;-56
2023/08/24 07:56:12;;;;;;;;;;;26.10;59.00;;;;;;1538198;75;1535;-54
2023/08/24 07:58:14;;;;;;;;;;;26.10;58.70;;;;;;1541357;75;1944;-54
2023/08/24 08:00:16;;;;;;;;;;;26.10;58.90;;;;;;1548133;75;1087;-56
2023/08/24 08:02:18;;;;;;;;;;;26.10;58.90;;;;;;1552661;75;704;-55
2023/08/24 08:04:20;;;;;;;;;;;26.10;58.90;;;;;;1542780;75;670;-54
2023/08/24 08:06:24;;;;;;;;;;;26.10;58.90;;;;;;1553915;75;786;-53
2023/08/24 08:08:25;;;;;;;;;;;26.10;59.00;;;;;;1547622;74;1604;-56
2023/08/24 08:10:27;;;;;;;;;;;26.10;58.70;;;;;;1549574;75;1502;-56
2023/08/24 08:12:31;;;;;;;;;;;26.20;58.70;;;;;;1559122;75;722;-54
2023/08/24 08:14:32;;;;;;;;;;;26.10;59.00;;;;;;1543481;75;1660;-56
2023/08/24 08:16:36;;;;;;;;;;;26.10;58.90;;;;;;1558770;75;1925;-53
2023/08/24 08:18:38;;;;;;;;;;;26.20;58.90;;;;;;1547911;75;732;-56
2023/08/24 08:20:40;;;;;;;;;;;26.10;58.90;;;;;;1531668;74;1117;-55
2023/08/24 08:22:42;;;;;;;;;;;26.20;59.00;;;;;;1559302;75;737;-56
2023/08/24 08:24:44;;;;;;;;;;;26.10;58.80;;;;;;1540534;75;1678;-55
2023/08/24 08:26:45;;;;;;;;;;;26.10;58.80;;;;;;1544284;75;704;-55
2023/08/24 08:28:47;;;;;;;;;;;26.10;58.90;;;;;;1551937;75;743;-53
2023/08/24 08:30:49;;;;;;;;;;;26.10;59.20;;;;;;1553878;75;1109;-55
2023/08/24 08:32:52;;;;;;;;;;;26.20;59.00;;;;;;1544964;75;804;-56
2023/08/24 08:34:56;;;;;;;;;;;26.20;59.20;;;;;;1541105;75;788;-53
2023/08/24 08:36:58;;;;;;;;;;;26.20;59.10;;;;;;1554582;75;1931;-53
2023/08/24 08:39:00;;;;;;;;;;;26.20;59.30;;;;;;1564534;75;1166;-57
2023/08/24 08:41:02;;;;;;;;;;;26.20;59.40;;;;;;1550817;75;738;-56
2023/08/24 08:43:06;;;;;;;;;;;26.20;59.40;;;;;;1547255;75;975;-53
2023/08/24 08:45:10;;;;;;;;;;;26.20;59.10;;;;;;1551078;75;683;-56
2023/08/24 08:47:12;;;;;;;;;;;26.10;59.30;;;;;;1557171;75;770;-56
2023/08/24 08:49:19;;;;;;;;;;;26.20;59.60;;;;;;1557442;75;1177;-55
2023/08/24 08:51:18;;;;;;;;;;;26.10;59.30;;;;;;1535605;75;1501;-56
2023/08/24 08:53:20;;;;;;;;;;;26.20;59.10;;;;;;1545771;75;697;-56
2023/08/24 08:55:22;;;;;;;;;;;26.20;59.10;;;;;;1554089;75;667;-56
2023/08/24 08:57:25;;;;;;;;;;;26.20;59.20;;;;;;1542017;75;1943;-56
2023/08/24 08:59:30;;;;;;;;;;;26.20;59.20;;;;;;1545600;75;1173;-57
2023/08/24 09:01:32;;;;;;;;;;;26.20;59.20;;;;;;1549517;75;1111;-56
2023/08/24 09:03:34;;;;;;;;;;;26.20;59.30;;;;;;1547574;75;708;-56
2023/08/24 09:05:36;;;;;;;;;;;26.30;59.40;;;;;;1546746;75;1536;-54
2023/08/24 09:07:40;;;;;;;;;;;26.20;59.10;;;;;;1553703;75;760;-56
2023/08/24 09:09:42;;;;;;;;;;;26.10;59.40;;;;;;1556835;75;1185;-56
2023/08/24 09:11:47;;;;;;;;;;;26.20;59.50;;;;;;1557804;75;805;-56
2023/08/24 09:13:47;;;;;;;;;;;26.20;59.40;;;;;;1549364;75;1589;-54
2023/08/24 09:15:51;;;;;;;;;;;26.30;59.50;;;;;;1539540;75;701;-56
2023/08/24 09:17:53;;;;;;;;;;;26.20;59.60;;;;;;1557332;75;1928;-57
2023/08/24 09:19:57;;;;;;;;;;;26.20;59.40;;;;;;1539768;76;1569;-56
2023/08/24 09:21:59;;;;;;;;;;;26.20;59.30;;;;;;1557557;75;2077;-57
2023/08/24 09:24:01;;;;;;;;;;;26.20;59.70;;;;;;1545527;75;811;-54
2023/08/24 09:26:04;;;;;;;;;;;26.20;59.70;;;;;;1556895;75;767;-54
2023/08/24 09:28:07;;;;;;;;;;;26.30;59.20;;;;;;1536231;75;734;-54
2023/08/24 09:30:09;;;;;;;;;;;26.20;59.90;;;;;;1547884;75;1156;-55
2023/08/24 09:32:11;;;;;;;;;;;26.20;59.50;;;;;;1544793;75;672;-56
2023/08/24 09:34:13;;;;;;;;;;;26.20;59.70;;;;;;1550379;75;1646;-56
2023/08/24 09:36:15;;;;;;;;;;;26.30;60.00;;;;;;1564096;75;691;-54
2023/08/24 09:38:18;;;;;;;;;;;26.20;59.80;;;;;;1555106;75;1947;-54
2023/08/24 09:40:21;;;;;;;;;;;26.20;59.80;;;;;;1547279;75;1170;-55
2023/08/24 09:42:26;;;;;;;;;;;26.20;59.90;;;;;;1539343;75;1906;-54
2023/08/24 09:44:28;;;;;;;;;;;26.20;59.70;;;;;;1551689;75;802;-55
2023/08/24 09:46:30;;;;;;;;;;;26.30;59.40;;;;;;1546391;75;812;-53
2023/08/24 09:48:32;;;;;;;;;;;26.20;60.00;;;;;;1548731;75;1477;-55
2023/08/24 09:50:34;;;;;;;;;;;26.30;59.70;;;;;;1551149;75;1173;-54
2023/08/24 09:52:36;;;;;;;;;;;26.20;59.70;;;;;;1555281;75;755;-53
2023/08/24 09:54:38;;;;;;;;;;;26.30;59.90;;;;;;1544226;75;713;-55
2023/08/24 09:56:41;;;;;;;;;;;26.30;59.60;;;;;;1542920;75;800;-55
2023/08/24 09:58:43;;;;;;;;;;;26.30;59.70;;;;;;1554246;75;1903;-56
2023/08/24 10:00:50;;;;;;;;;;;26.30;60.10;;;;;;1551563;75;1129;-56
2023/08/24 10:02:50;;;;;;;;;;;26.30;60.00;;;;;;1541623;75;1461;-56
2023/08/24 10:04:52;;;;;;;;;;;26.20;59.60;;;;;;1545501;75;735;-56
2023/08/24 10:06:56;;;;;;;;;;;26.20;59.70;;;;;;1565472;75;803;-56
2023/08/24 10:09:00;;;;;;;;;;;26.30;60.00;;;;;;1541960;75;1923;-55
2023/08/24 10:11:02;;;;;;;;;;;26.30;59.90;;;;;;1539989;75;729;-56
2023/08/24 10:13:11;;;;;;;;;;;26.20;59.60;;;;;;1547545;75;809;-54
2023/08/24 10:15:13;;;;;;;;;;;26.30;60.10;;;;;;1561872;75;760;-54
2023/08/24 10:17:15;;;;;;;;;;;26.30;59.90;;;;;;1544626;75;1949;-57
2023/08/24 10:19:17;;;;;;;;;;;26.30;60.00;;;;;;1564194;75;1148;-57
2023/08/24 10:21:19;;;;;;;;;;;26.30;60.00;;;;;;1546586;75;721;-55
2023/08/24 10:23:21;;;;;;;;;;;26.30;60.10;;;;;;1556593;75;712;-55
2023/08/24 10:25:24;;;;;;;;;;;26.30;59.90;;;;;;1549607;75;742;-53
2023/08/24 10:27:27;;;;;;;;;;;26.30;59.80;;;;;;1556443;75;675;-56
2023/08/24 10:29:29;;;;;;;;;;;26.30;60.30;;;;;;1551383;75;1544;-55
2023/08/24 10:31:31;;;;;;;;;;;26.30;60.30;;;;;;1528035;76;771;-53
2023/08/24 10:33:34;;;;;;;;;;;26.30;60.00;;;;;;1496884;78;767;-55
2023/08/24 10:35:36;;;;;;;;;;;26.30;59.80;;;;;;1509322;77;720;-54
2023/08/24 10:37:37;;;;;;;;;;;26.20;59.70;;;;;;1563043;74;1926;-54
2023/08/24 10:39:46;;;;;;;;;;;26.30;60.00;;;;;;1564945;75;1191;-55
2023/08/24 10:41:48;;;;;;;;;;;26.30;60.40;;;;;;1564840;75;760;-54
2023/08/24 10:43:50;;;;;;;;;;;26.30;60.10;;;;;;1553451;74;1457;-54
2023/08/24 10:45:59;;;;;;;;;;;26.30;59.90;;;;;;1562089;75;817;-57
2023/08/24 10:47:58;;;;;;;;;;;26.30;60.10;;;;;;1568816;74;1589;-55
2023/08/24 10:50:00;;;;;;;;;;;26.30;60.30;;;;;;1569679;75;1153;-55
2023/08/24 10:52:21;;;;;;;;;;;26.30;60.40;;;;;;1576478;75;741;-57
2023/08/24 10:54:24;;;;;;;;;;;26.30;60.20;;;;;;1558862;75;675;-55
2023/08/24 10:56:38;;;;;;;;;;;26.30;60.00;;;;;;1558508;75;1936;-57
2023/08/24 10:58:39;;;;;;;;;;;26.30;59.90;;;;;;1561391;74;1928;-55
2023/08/24 11:00:41;;;;;;;;;;;26.30;60.20;;;;;;1552196;74;1234;-54
2023/08/24 11:02:45;;;;;;;;;;;26.30;60.10;;;;;;1536419;76;1137;-54
2023/08/24 11:05:05;;;;;;;;;;;26.30;60.00;;;;;;1554593;75;726;-56
2023/08/24 11:07:08;;;;;;;;;;;26.30;60.20;;;;;;1562834;74;754;-56
2023/08/24 11:09:19;;;;;;;;;;;26.30;59.90;;;;;;1525979;76;1140;-56
2023/08/24 11:11:22;;;;;;;;;;;26.30;60.20;;;;;;1560058;74;1123;-56
2023/08/24 11:13:24;;;;;;;;;;;26.30;60.10;;;;;;1561016;75;1688;-53
2023/08/24 11:15:34;;;;;;;;;;;26.30;60.10;;;;;;1562290;74;837;-53
2023/08/24 11:17:35;;;;;;;;;;;26.30;59.90;;;;;;1547787;75;1946;-55
2023/08/24 11:19:37;;;;;;;;;;;26.30;60.10;;;;;;1562929;75;1145;-55
2023/08/24 11:21:40;;;;;;;;;;;26.30;60.00;;;;;;1552997;74;728;-56
2023/08/24 11:23:42;;;;;;;;;;;26.30;59.80;;;;;;1546194;74;680;-56
2023/08/24 11:25:44;;;;;;;;;;;26.30;59.80;;;;;;1518073;76;1563;-53
2023/08/24 11:27:46;;;;;;;;;;;26.30;59.80;;;;;;1557096;74;806;-52
2023/08/24 11:29:48;;;;;;;;;;;26.30;60.00;;;;;;1543428;75;1126;-54
2023/08/24 11:31:51;;;;;;;;;;;26.30;59.90;;;;;;1527406;76;1288;-52
2023/08/24 11:33:56;;;;;;;;;;;26.30;59.90;;;;;;1561851;74;736;-56
2023/08/24 11:35:58;;;;;;;;;;;26.30;59.80;;;;;;1560373;75;779;-54
2023/08/24 11:38:00;;;;;;;;;;;26.30;59.70;;;;;;1542286;75;1911;-55
2023/08/24 11:40:02;;;;;;;;;;;26.30;59.90;;;;;;1563892;75;1596;-53
2023/08/24 11:42:05;;;;;;;;;;;26.30;59.70;;;;;;1558989;74;698;-52
2023/08/24 11:44:07;;;;;;;;;;;26.30;59.80;;;;;;1549974;75;1137;-52
2023/08/24 11:46:08;;;;;;;;;;;26.30;59.80;;;;;;1555149;75;771;-55
2023/08/24 11:48:10;;;;;;;;;;;26.20;59.80;;;;;;1562699;75;919;-56
2023/08/24 11:50:12;;;;;;;;;;;26.30;59.60;;;;;;1555081;75;1207;-54
2023/08/24 11:52:15;;;;;;;;;;;26.30;59.60;;;;;;1542373;75;747;-56
2023/08/24 11:54:19;;;;;;;;;;;26.30;59.80;;;;;;1570478;75;1290;-55
2023/08/24 11:56:21;;;;;;;;;;;26.30;59.70;;;;;;1565094;75;758;-56
2023/08/24 11:58:23;;;;;;;;;;;26.30;59.70;;;;;;1553061;75;1935;-55
2023/08/24 12:00:24;;;;;;;;;;;26.30;59.70;;;;;;1560912;75;1127;-56
2023/08/24 12:02:26;;;;;;;;;;;26.30;59.50;;;;;;1566568;75;684;-55
2023/08/24 12:04:28;;;;;;;;;;;26.30;59.50;;;;;;1563492;75;966;-53
2023/08/24 12:06:30;;;;;;;;;;;26.30;59.40;;;;;;1561998;75;761;-55
2023/08/24 12:08:32;;;;;;;;;;;26.30;59.40;;;;;;1547433;75;1447;-54